Terminal Aerodrome Forecast
Issued by NWS

Home | Current Version | Previous Version | Text Only | Print | Product List | Glossary On
Versions: 1 2 3 4 5 6 7 8 9 10 11 12 13 14 15 16 17
000
FTUS41 KCAR 200241 AAA
TAFBHB
TAF AMD
KBHB 200241Z 2003/2024 22012G20KT 6SM -RA OVC020
     FM200600 23011KT 5SM -RA BR OVC008
     FM201000 24010KT 2SM -RA BR OVC005
     FM201400 26004KT 5SM -RA BR OVC008
     FM201800 VRB03KT P6SM VCSH OVC012=

USA.gov is the U.S. government's official web portal to all federal, state and local government web resources and services.